Vixit — ZHBM5 — position and weather

sailwx.info

Track history (hours):
 
Tides and Currents Weather Stations Pressure Air Temp Water Temp Dewpoint Dewpoint Depression Visibility Wind Speed Wind Dir Waves Ship Positions

Vixit

Last reported at 2018-Jan-09 06:00 UTC. Time now 2018-Jan-19 00:02 UTC.
Position N 14°18' W 061°13'.
Warning: this ship's position is 9 days out of date.

Length 54 m; draft 3.8 m.

Type: Pleasure craft. MMSI: 319238000.

Date/timePositionNaut miles runAvg speedWind from/ knotsBaromVisibWave heightAir tempDewpointWater temp
2018-Jan-09 06:00N 14°18' W 061°13'611.8
2018-Jan-09 05:30N 14°24' W 061°12'611.9
2018-Jan-09 05:01N 14°30' W 061°10'612.1
2018-Jan-09 04:30N 14°36' W 061°09'1 0.1
2018-Jan-08 22:13N 14°35' W 061°09'  
2018-Jan-02 16:20N 14°14' W 060°57'412.9
2018-Jan-02 16:01N 14°18' W 060°56'613.0
2018-Jan-02 15:31N 14°24' W 060°55'4 8.5
2018-Jan-02 15:01N 14°28' W 060°52'0 0.5
2018-Jan-02 14:29N 14°28' W 060°52'0 0.0
2018-Jan-02 13:53N 14°28' W 060°52'0 0.0
2018-Jan-02 13:29N 14°28' W 060°52'0 0.0
2018-Jan-02 12:59N 14°28' W 060°52'0 0.0
2018-Jan-02 12:29N 14°28' W 060°52'0 0.0
2018-Jan-02 11:53N 14°28' W 060°52'0 0.0
2018-Jan-02 11:29N 14°28' W 060°52'0 0.0
2018-Jan-02 10:59N 14°28' W 060°52'0 0.0
2018-Jan-02 10:20N 14°28' W 060°52'0 0.0
2018-Jan-02 09:56N 14°28' W 060°52'0 0.0
2018-Jan-02 09:29N 14°28' W 060°52'0 0.0
2018-Jan-02 08:29N 14°28' W 060°52'0 0.0
2018-Jan-02 07:59N 14°28' W 060°52'0 0.0
2018-Jan-02 07:29N 14°28' W 060°52'0 0.0
2018-Jan-02 06:53N 14°28' W 060°52'0 0.0
2018-Jan-02 06:29N 14°28' W 060°52'0 0.0
2018-Jan-02 05:59N 14°28' W 060°52'0 0.0
2018-Jan-02 05:29N 14°28' W 060°52'0 0.0
2018-Jan-02 04:29N 14°28' W 060°52'0 0.0
2018-Jan-02 03:59N 14°28' W 060°52'0 0.0
2018-Jan-02 03:26N 14°28' W 060°52'0 0.0
2018-Jan-02 02:59N 14°28' W 060°52'0 0.0
2018-Jan-02 02:29N 14°28' W 060°52'0 0.0
2018-Jan-02 01:59N 14°28' W 060°52'0 0.0
2018-Jan-02 01:29N 14°28' W 060°52'0 0.0
2018-Jan-02 00:59N 14°28' W 060°52'0 0.0
2018-Jan-02 00:29N 14°28' W 060°52'0 0.0
2018-Jan-01 23:56N 14°28' W 060°52'0 0.0
2018-Jan-01 23:29N 14°28' W 060°52'0 0.0
2018-Jan-01 22:59N 14°28' W 060°52'0 0.0
2018-Jan-01 22:29N 14°28' W 060°52'0 0.0
2018-Jan-01 21:17N 14°28' W 060°52'0 0.0
2018-Jan-01 20:59N 14°28' W 060°52'0 0.0
2018-Jan-01 20:29N 14°28' W 060°52'0 0.0
2018-Jan-01 19:59N 14°28' W 060°52'0 0.0
2018-Jan-01 19:29N 14°28' W 060°52'0 0.0
2018-Jan-01 18:59N 14°28' W 060°52'0 0.0
2018-Jan-01 18:29N 14°28' W 060°52'0 0.0
2018-Jan-01 17:59N 14°28' W 060°52'0 0.0
2018-Jan-01 17:29N 14°28' W 060°52'0 0.0
2018-Jan-01 14:59N 14°28' W 060°52'0 0.0
2018-Jan-01 14:23N 14°28' W 060°52'0 0.0
2018-Jan-01 13:59N 14°28' W 060°52'0 0.0
2018-Jan-01 13:29N 14°28' W 060°52'0 0.0
2018-Jan-01 12:58N 14°28' W 060°52'0 0.0
2018-Jan-01 11:55N 14°28' W 060°52'0 0.0
2018-Jan-01 11:28N 14°28' W 060°52'0 0.0
2018-Jan-01 10:58N 14°28' W 060°52'0 0.0
2018-Jan-01 10:28N 14°28' W 060°52'0 0.0
2018-Jan-01 09:58N 14°28' W 060°52'0 0.0
2018-Jan-01 09:28N 14°28' W 060°52'0 0.0
2018-Jan-01 08:28N 14°28' W 060°52'0 0.0
2018-Jan-01 07:58N 14°28' W 060°52'0 0.0
2018-Jan-01 07:22N 14°28' W 060°52'0 0.0
2018-Jan-01 06:58N 14°28' W 060°52'0 0.0
2018-Jan-01 05:58N 14°28' W 060°52'0 0.0
2018-Jan-01 05:28N 14°28' W 060°52'0 0.0
2018-Jan-01 04:58N 14°28' W 060°52'0 0.0
2018-Jan-01 03:58N 14°28' W 060°52'0 0.0
2018-Jan-01 03:28N 14°28' W 060°52'0 0.0
2018-Jan-01 02:58N 14°28' W 060°52'0 0.0
2018-Jan-01 02:28N 14°28' W 060°52'0 0.0
2018-Jan-01 01:58N 14°28' W 060°52'0 0.0
2018-Jan-01 01:28N 14°28' W 060°52'0 0.0
2018-Jan-01 00:28N 14°28' W 060°52'16 4.5
2017-Dec-31 21:01N 14°32' W 061°08'10012.5
2017-Dec-31 13:00N 16°10' W 061°31'4 7.5
2017-Dec-31 12:30N 16°13' W 061°32'0 0.0
2017-Dec-30 14:17N 16°13' W 061°32'0 1.3
2017-Dec-30 14:00N 16°13' W 061°32'5 9.0
2017-Dec-30 13:30N 16°09' W 061°31'1611.5
2017-Dec-30 12:06N 15°56' W 061°42'112.8
2017-Dec-30 12:00N 15°57' W 061°43'712.7
2017-Dec-30 11:28N 16°03' W 061°47'1012.4
2017-Dec-30 10:40N 16°13' W 061°49'212.3
2017-Dec-30 10:30N 16°15' W 061°50'612.5
2017-Dec-30 10:00N 16°21' W 061°51'612.9
2017-Dec-30 09:31N 16°27' W 061°52'713.1
2017-Dec-30 09:00N 16°34' W 061°52'613.0
2017-Dec-30 08:31N 16°40' W 061°53'612.6
2017-Dec-30 08:01N 16°46' W 061°54'612.2
2017-Dec-30 07:31N 16°52' W 061°55'612.2
2017-Dec-30 07:01N 16°59' W 061°56'611.6
2017-Dec-30 06:31N 17°04' W 061°56'  
Track history (hours):
 
Tides and Currents Weather Stations Pressure Air Temp Water Temp Dewpoint Dewpoint Depression Visibility Wind Speed Wind Dir Waves Ship Positions

Vixit

Last reported at 2018-Jan-09 06:00 UTC. Time now 2018-Jan-19 00:02 UTC.
Position N 14°18' W 061°13'.
Warning: this ship's position is 9 days out of date.

Length 54 m; draft 3.8 m.

Type: Pleasure craft. MMSI: 319238000.

Date/timePositionNaut miles runAvg speedWind from/ knotsBaromVisibWave heightAir tempDewpointWater temp
2018-Jan-09 06:00N 14°18' W 061°13'611.8
2018-Jan-09 05:30N 14°24' W 061°12'611.9
2018-Jan-09 05:01N 14°30' W 061°10'612.1
2018-Jan-09 04:30N 14°36' W 061°09'1 0.1
2018-Jan-08 22:13N 14°35' W 061°09'  
2018-Jan-02 16:20N 14°14' W 060°57'412.9
2018-Jan-02 16:01N 14°18' W 060°56'613.0
2018-Jan-02 15:31N 14°24' W 060°55'4 8.5
2018-Jan-02 15:01N 14°28' W 060°52'0 0.5
2018-Jan-02 14:29N 14°28' W 060°52'0 0.0
2018-Jan-02 13:53N 14°28' W 060°52'0 0.0
2018-Jan-02 13:29N 14°28' W 060°52'0 0.0
2018-Jan-02 12:59N 14°28' W 060°52'0 0.0
2018-Jan-02 12:29N 14°28' W 060°52'0 0.0
2018-Jan-02 11:53N 14°28' W 060°52'0 0.0
2018-Jan-02 11:29N 14°28' W 060°52'0 0.0
2018-Jan-02 10:59N 14°28' W 060°52'0 0.0
2018-Jan-02 10:20N 14°28' W 060°52'0 0.0
2018-Jan-02 09:56N 14°28' W 060°52'0 0.0
2018-Jan-02 09:29N 14°28' W 060°52'0 0.0
2018-Jan-02 08:29N 14°28' W 060°52'0 0.0
2018-Jan-02 07:59N 14°28' W 060°52'0 0.0
2018-Jan-02 07:29N 14°28' W 060°52'0 0.0
2018-Jan-02 06:53N 14°28' W 060°52'0 0.0
2018-Jan-02 06:29N 14°28' W 060°52'0 0.0
2018-Jan-02 05:59N 14°28' W 060°52'0 0.0
2018-Jan-02 05:29N 14°28' W 060°52'0 0.0
2018-Jan-02 04:29N 14°28' W 060°52'0 0.0
2018-Jan-02 03:59N 14°28' W 060°52'0 0.0
2018-Jan-02 03:26N 14°28' W 060°52'0 0.0
2018-Jan-02 02:59N 14°28' W 060°52'0 0.0
2018-Jan-02 02:29N 14°28' W 060°52'0 0.0
2018-Jan-02 01:59N 14°28' W 060°52'0 0.0
2018-Jan-02 01:29N 14°28' W 060°52'0 0.0
2018-Jan-02 00:59N 14°28' W 060°52'0 0.0
2018-Jan-02 00:29N 14°28' W 060°52'0 0.0
2018-Jan-01 23:56N 14°28' W 060°52'0 0.0
2018-Jan-01 23:29N 14°28' W 060°52'0 0.0
2018-Jan-01 22:59N 14°28' W 060°52'0 0.0
2018-Jan-01 22:29N 14°28' W 060°52'0 0.0
2018-Jan-01 21:17N 14°28' W 060°52'0 0.0
2018-Jan-01 20:59N 14°28' W 060°52'0 0.0
2018-Jan-01 20:29N 14°28' W 060°52'0 0.0
2018-Jan-01 19:59N 14°28' W 060°52'0 0.0
2018-Jan-01 19:29N 14°28' W 060°52'0 0.0
2018-Jan-01 18:59N 14°28' W 060°52'0 0.0
2018-Jan-01 18:29N 14°28' W 060°52'0 0.0
2018-Jan-01 17:59N 14°28' W 060°52'0 0.0
2018-Jan-01 17:29N 14°28' W 060°52'0 0.0
2018-Jan-01 14:59N 14°28' W 060°52'0 0.0
2018-Jan-01 14:23N 14°28' W 060°52'0 0.0
2018-Jan-01 13:59N 14°28' W 060°52'0 0.0
2018-Jan-01 13:29N 14°28' W 060°52'0 0.0
2018-Jan-01 12:58N 14°28' W 060°52'0 0.0
2018-Jan-01 11:55N 14°28' W 060°52'0 0.0
2018-Jan-01 11:28N 14°28' W 060°52'0 0.0
2018-Jan-01 10:58N 14°28' W 060°52'0 0.0
2018-Jan-01 10:28N 14°28' W 060°52'0 0.0
2018-Jan-01 09:58N 14°28' W 060°52'0 0.0
2018-Jan-01 09:28N 14°28' W 060°52'0 0.0
2018-Jan-01 08:28N 14°28' W 060°52'0 0.0
2018-Jan-01 07:58N 14°28' W 060°52'0 0.0
2018-Jan-01 07:22N 14°28' W 060°52'0 0.0
2018-Jan-01 06:58N 14°28' W 060°52'0 0.0
2018-Jan-01 05:58N 14°28' W 060°52'0 0.0
2018-Jan-01 05:28N 14°28' W 060°52'0 0.0
2018-Jan-01 04:58N 14°28' W 060°52'0 0.0
2018-Jan-01 03:58N 14°28' W 060°52'0 0.0
2018-Jan-01 03:28N 14°28' W 060°52'0 0.0
2018-Jan-01 02:58N 14°28' W 060°52'0 0.0
2018-Jan-01 02:28N 14°28' W 060°52'0 0.0
2018-Jan-01 01:58N 14°28' W 060°52'0 0.0
2018-Jan-01 01:28N 14°28' W 060°52'0 0.0
2018-Jan-01 00:28N 14°28' W 060°52'16 4.5
2017-Dec-31 21:01N 14°32' W 061°08'10012.5
2017-Dec-31 13:00N 16°10' W 061°31'4 7.5
2017-Dec-31 12:30N 16°13' W 061°32'0 0.0
2017-Dec-30 14:17N 16°13' W 061°32'0 1.3
2017-Dec-30 14:00N 16°13' W 061°32'5 9.0
2017-Dec-30 13:30N 16°09' W 061°31'1611.5
2017-Dec-30 12:06N 15°56' W 061°42'112.8
2017-Dec-30 12:00N 15°57' W 061°43'712.7
2017-Dec-30 11:28N 16°03' W 061°47'1012.4
2017-Dec-30 10:40N 16°13' W 061°49'212.3
2017-Dec-30 10:30N 16°15' W 061°50'612.5
2017-Dec-30 10:00N 16°21' W 061°51'612.9
2017-Dec-30 09:31N 16°27' W 061°52'713.1
2017-Dec-30 09:00N 16°34' W 061°52'613.0
2017-Dec-30 08:31N 16°40' W 061°53'612.6
2017-Dec-30 08:01N 16°46' W 061°54'612.2
2017-Dec-30 07:31N 16°52' W 061°55'612.2
2017-Dec-30 07:01N 16°59' W 061°56'611.6
2017-Dec-30 06:31N 17°04' W 061°56'  

Dump ship's entire track history